Дата Пункты Температура Давл., мм. Влажн., % Ветер Погодные явления
Воздуха Воды Направл. Скорость
10.12.19 08:00 Одесса 9.0 9.0 758 84 Пд-З 1 08 ГОДИН
10.12.19 05:00 Одесса 9.0 9.0 758 88 Пд 2 05 ГОДИН
10.12.19 02:00 Одесса 9.0 9.0 758 90 Пд-З 2 02 ГОДИНИ
09.12.19 11:00 Одесса 9.0 9.0 757 85 Пд 2 23 ГОДИНИ
09.12.19 08:00 Одесса 9.0 9.0 757 83 Пд-З 3 20 ГОДИН
09.12.19 05:00 Одесса 9.0 9.0 757 85 Пд-З 4 17 ГОДИН
09.12.19 02:00 Одесса 10.0 9.0 757 82 Пд 2 14 ГОДИН
09.12.19 11:00 Одесса 10.0 9.0 758 84 Пд 2 11 ГОДИН
09.12.19 08:00 Одесса 7.0 9.0 758 84 Пд-З 2 08 ГОДИН
09.12.19 05:00 Одесса 5.0 9.0 758 80 Пд-З 2 05 ГОДИН
09.12.19 02:00 Одесса 2.0 9.0 759 86 Пн 0 02 ГОДИНИ
08.12.19 11:00 Одесса 4.0 9.0 759 81 З 2 23 ГОДИНИ
08.12.19 08:00 Одесса 5.0 9.0 759 77 З 1 20 ГОДИН
08.12.19 05:00 Одесса 7.0 9.0 759 71 З 2 17 ГОДИН
08.12.19 02:00 Одесса 10.0 9.0 758 58 Пн-З 3 14 ГОДИН
08.12.19 11:00 Одесса 8.0 9.0 759 59 Пн-З 2 11 ГОДИН
08.12.19 08:00 Одесса 2.0 9.0 758 69 Пн-З 1 08 ГОДИН
08.12.19 05:00 Одесса 4.0 9.0 757 63 Пн-З 3 05 ГОДИН
08.12.19 02:00 Одесса 3.0 9.0 757 74 Пн-З 3 02 ГОДИНИ
07.12.19 11:00 Одесса 3.0 9.0 757 80 З 1 23 ГОДИНИ
Количество строк
1 2 3 4 5 6 7 8 9 10
Page 1 of 561